Time;durP1;ratioP1;P1;durP2;ratioP2;P2;SDS_P1;SDS_P2;PMS_P1;PMS_P2;Temp;Humidity;BMP_temperature;BMP_pressure;BME280_temperature;BME280_humidity;BME280_pressure;Samples;Min_cycle;Max_cycle;Signal;HPM_P1;HPM_P2
2022/03/13 00:00:36;;;;;;;167.80;59.03;;;;;;;;;;5031203;28;20450;-64
2022/03/13 00:03:08;;;;;;;144.20;50.80;;;;;;;;;;5029264;28;20439;-63
2022/03/13 00:05:38;;;;;;;158.77;52.10;;;;;;;;;;5029441;28;20958;-64
2022/03/13 00:08:15;;;;;;;163.43;55.60;;;;;;;;;;5039973;28;20434;-63
2022/03/13 00:10:43;;;;;;;135.87;49.47;;;;;;;;;;5049136;28;20439;-64
2022/03/13 00:13:15;;;;;;;154.23;53.73;;;;;;;;;;5049462;28;20429;-63
2022/03/13 00:15:42;;;;;;;160.53;52.00;;;;;;;;;;5048970;28;20429;-63
2022/03/13 00:18:09;;;;;;;137.93;48.53;;;;;;;;;;5049684;28;20440;-63
2022/03/13 00:20:38;;;;;;;136.67;50.57;;;;;;;;;;5049001;28;20482;-63
2022/03/13 00:23:06;;;;;;;137.77;49.17;;;;;;;;;;5048820;28;20450;-64
2022/03/13 00:25:32;;;;;;;132.67;48.67;;;;;;;;;;5049165;28;20435;-64
2022/03/13 00:27:59;;;;;;;143.17;51.80;;;;;;;;;;5049156;28;20430;-63
2022/03/13 00:30:26;;;;;;;142.60;49.13;;;;;;;;;;5048865;28;20432;-63
2022/03/13 00:32:52;;;;;;;142.07;48.77;;;;;;;;;;5049021;28;20470;-63
2022/03/13 00:35:20;;;;;;;198.00;60.13;;;;;;;;;;5048790;28;20549;-63
2022/03/13 00:37:46;;;;;;;185.07;58.97;;;;;;;;;;5048895;28;20426;-63
2022/03/13 00:40:13;;;;;;;183.27;56.50;;;;;;;;;;5048587;28;20457;-63
2022/03/13 00:42:40;;;;;;;145.47;49.47;;;;;;;;;;5041931;28;20447;-63
2022/03/13 00:45:07;;;;;;;147.70;49.50;;;;;;;;;;5028952;28;20495;-64
2022/03/13 00:47:34;;;;;;;145.53;50.60;;;;;;;;;;5028685;28;20438;-63
2022/03/13 00:50:00;;;;;;;151.50;52.70;;;;;;;;;;5028488;28;20428;-63
2022/03/13 00:52:27;;;;;;;182.60;54.93;;;;;;;;;;5028632;28;20502;-63
2022/03/13 00:54:55;;;;;;;162.90;54.47;;;;;;;;;;5028581;28;20436;-63
2022/03/13 00:57:21;;;;;;;209.57;63.97;;;;;;;;;;5027817;28;20443;-63
2022/03/13 00:59:48;;;;;;;212.43;63.33;;;;;;;;;;5028641;28;20511;-63
2022/03/13 01:02:15;;;;;;;165.60;53.53;;;;;;;;;;5026908;28;20437;-64
2022/03/13 01:36:56;;;;;;;131.30;43.43;;;;;;;;;;5034316;28;20494;-64
2022/03/13 01:39:23;;;;;;;126.70;41.40;;;;;;;;;;5034961;28;20448;-63
2022/03/13 01:41:51;;;;;;;135.53;45.50;;;;;;;;;;5034350;28;20479;-63
2022/03/13 01:44:21;;;;;;;133.27;45.77;;;;;;;;;;5034790;28;20430;-63
2022/03/13 01:46:48;;;;;;;129.70;45.43;;;;;;;;;;5034510;28;20438;-63
2022/03/13 01:49:16;;;;;;;137.47;48.80;;;;;;;;;;5034502;28;20430;-63
2022/03/13 01:51:42;;;;;;;135.77;48.27;;;;;;;;;;5034284;28;20481;-63
2022/03/13 01:54:12;;;;;;;130.50;44.87;;;;;;;;;;5035116;28;20848;-63
2022/03/13 01:56:39;;;;;;;124.53;44.67;;;;;;;;;;5034412;28;20442;-63
2022/03/13 01:59:06;;;;;;;135.67;45.67;;;;;;;;;;5034528;28;20422;-64
2022/03/13 02:01:33;;;;;;;123.80;44.57;;;;;;;;;;5034497;28;20429;-63
2022/03/13 02:04:00;;;;;;;112.77;43.50;;;;;;;;;;5034229;28;20459;-63
2022/03/13 02:06:27;;;;;;;116.10;45.00;;;;;;;;;;5034712;28;20793;-63
2022/03/13 02:08:54;;;;;;;109.70;42.10;;;;;;;;;;5034776;28;20426;-63
2022/03/13 02:11:22;;;;;;;98.93;38.80;;;;;;;;;;5034304;28;20456;-63
2022/03/13 02:13:50;;;;;;;104.87;41.60;;;;;;;;;;5034570;28;20954;-63
2022/03/13 02:16:17;;;;;;;115.43;42.40;;;;;;;;;;5034074;28;20469;-63
2022/03/13 02:18:46;;;;;;;118.50;43.50;;;;;;;;;;5033101;28;20879;-63
2022/03/13 02:21:14;;;;;;;116.97;42.97;;;;;;;;;;5034696;28;20929;-63
2022/03/13 02:23:42;;;;;;;114.23;44.60;;;;;;;;;;5034423;28;21158;-63
2022/03/13 02:26:09;;;;;;;114.30;42.47;;;;;;;;;;5034445;28;20427;-63
2022/03/13 02:28:36;;;;;;;116.33;41.33;;;;;;;;;;5034588;28;20782;-63
2022/03/13 02:31:04;;;;;;;115.00;44.67;;;;;;;;;;5033529;28;20570;-63
2022/03/13 02:33:31;;;;;;;123.90;43.27;;;;;;;;;;5033820;28;20469;-63
2022/03/13 02:35:59;;;;;;;124.40;43.40;;;;;;;;;;5033592;28;20435;-63
2022/03/13 02:38:27;;;;;;;107.63;40.57;;;;;;;;;;5031043;28;20443;-63
2022/03/13 02:40:54;;;;;;;104.90;40.37;;;;;;;;;;5030771;28;20517;-63
2022/03/13 02:43:20;;;;;;;102.50;40.83;;;;;;;;;;5046386;28;20442;-63
2022/03/13 02:45:47;;;;;;;104.83;38.30;;;;;;;;;;5042618;28;20499;-63
2022/03/13 02:48:16;;;;;;;94.53;37.80;;;;;;;;;;5051149;28;20430;-63
2022/03/13 02:50:43;;;;;;;96.00;38.47;;;;;;;;;;5050630;28;20438;-63
2022/03/13 02:53:10;;;;;;;109.47;39.87;;;;;;;;;;5050782;28;20883;-63
2022/03/13 02:55:36;;;;;;;106.30;38.80;;;;;;;;;;5050748;28;20465;-63
2022/03/13 02:58:03;;;;;;;87.53;37.23;;;;;;;;;;5050486;28;20507;-63
2022/03/13 03:00:39;;;;;;;97.87;36.73;;;;;;;;;;5050796;28;20425;-63
2022/03/13 03:03:06;;;;;;;100.30;38.70;;;;;;;;;;5050914;28;20448;-63
2022/03/13 03:05:33;;;;;;;94.93;38.63;;;;;;;;;;5033075;28;20446;-63
2022/03/13 03:08:01;;;;;;;98.53;37.73;;;;;;;;;;5041811;28;20437;-63
2022/03/13 03:10:28;;;;;;;114.37;40.07;;;;;;;;;;5050575;28;20427;-63
2022/03/13 03:12:54;;;;;;;111.70;40.87;;;;;;;;;;5050274;28;20905;-63
2022/03/13 03:15:22;;;;;;;101.77;38.10;;;;;;;;;;5050637;28;20423;-63
2022/03/13 03:17:49;;;;;;;100.57;38.90;;;;;;;;;;5050169;28;20426;-64
2022/03/13 03:20:15;;;;;;;102.53;40.87;;;;;;;;;;5050417;28;20948;-63
2022/03/13 03:22:42;;;;;;;108.17;38.50;;;;;;;;;;5050218;28;21361;-63
2022/03/13 03:25:09;;;;;;;104.53;38.67;;;;;;;;;;5049392;28;20440;-63
2022/03/13 03:27:36;;;;;;;99.87;38.37;;;;;;;;;;5048953;28;20455;-63
2022/03/13 03:30:03;;;;;;;98.90;37.43;;;;;;;;;;5048993;28;20781;-63
2022/03/13 03:32:30;;;;;;;100.17;39.33;;;;;;;;;;5049963;28;20517;-63
2022/03/13 03:34:57;;;;;;;102.97;41.20;;;;;;;;;;5050046;28;20430;-63
2022/03/13 03:37:24;;;;;;;102.17;40.93;;;;;;;;;;5048551;28;20494;-63
2022/03/13 03:39:51;;;;;;;123.57;44.83;;;;;;;;;;5049784;28;20929;-63
2022/03/13 03:42:18;;;;;;;108.63;42.93;;;;;;;;;;5050010;28;20523;-63
2022/03/13 03:44:44;;;;;;;115.47;43.87;;;;;;;;;;5049804;28;20819;-63
2022/03/13 03:47:11;;;;;;;114.40;47.03;;;;;;;;;;5046430;28;20812;-63
2022/03/13 03:49:38;;;;;;;106.10;42.67;;;;;;;;;;5028723;28;20430;-63
2022/03/13 03:52:04;;;;;;;113.40;42.47;;;;;;;;;;5029365;28;20568;-63
2022/03/13 03:54:31;;;;;;;113.10;42.63;;;;;;;;;;5029837;28;20442;-63
2022/03/13 03:56:58;;;;;;;115.60;42.87;;;;;;;;;;5030004;28;20533;-63
2022/03/13 03:59:25;;;;;;;107.70;41.80;;;;;;;;;;5029668;28;20474;-63
2022/03/13 04:01:52;;;;;;;111.83;41.53;;;;;;;;;;5029311;28;20858;-63
2022/03/13 04:04:18;;;;;;;111.53;43.07;;;;;;;;;;5029555;28;20509;-63
2022/03/13 04:06:45;;;;;;;100.50;42.10;;;;;;;;;;5029881;28;20435;-64
2022/03/13 04:09:12;;;;;;;112.07;41.87;;;;;;;;;;5049759;28;20433;-63
2022/03/13 04:11:40;;;;;;;108.50;42.17;;;;;;;;;;5048304;28;20541;-63
2022/03/13 04:14:09;;;;;;;103.07;40.70;;;;;;;;;;5049476;28;20426;-63
2022/03/13 04:16:36;;;;;;;98.57;39.43;;;;;;;;;;5049169;28;20963;-63
2022/03/13 04:19:02;;;;;;;108.23;40.00;;;;;;;;;;5048965;28;21289;-63
2022/03/13 04:21:29;;;;;;;101.53;39.77;;;;;;;;;;5049342;28;21026;-63
2022/03/13 04:23:56;;;;;;;100.80;40.87;;;;;;;;;;5049573;28;20423;-63
2022/03/13 04:26:22;;;;;;;104.70;40.77;;;;;;;;;;5049074;28;21373;-63
2022/03/13 04:28:49;;;;;;;96.60;39.27;;;;;;;;;;5048873;28;20459;-64
2022/03/13 04:31:17;;;;;;;106.93;40.17;;;;;;;;;;5048351;28;20445;-63
2022/03/13 04:33:45;;;;;;;111.93;40.67;;;;;;;;;;5048421;28;20469;-63
2022/03/13 04:36:14;;;;;;;109.73;41.07;;;;;;;;;;5049317;28;20487;-63
2022/03/13 04:38:41;;;;;;;106.37;39.70;;;;;;;;;;5048684;28;20861;-63
2022/03/13 04:41:09;;;;;;;97.53;38.27;;;;;;;;;;5048643;28;20469;-63
2022/03/13 04:43:37;;;;;;;105.33;38.70;;;;;;;;;;5048600;28;20437;-63
2022/03/13 04:46:04;;;;;;;110.83;39.53;;;;;;;;;;5048347;28;20421;-63
2022/03/13 04:48:32;;;;;;;92.43;36.10;;;;;;;;;;5048620;28;20445;-63
2022/03/13 04:50:59;;;;;;;97.17;38.07;;;;;;;;;;5030269;28;20558;-64
2022/03/13 04:53:26;;;;;;;103.30;39.60;;;;;;;;;;5028141;28;21087;-63
2022/03/13 04:55:53;;;;;;;105.40;39.73;;;;;;;;;;5028415;28;20422;-63
2022/03/13 04:58:20;;;;;;;105.37;38.27;;;;;;;;;;5035977;28;20488;-64
2022/03/13 05:00:48;;;;;;;98.93;37.83;;;;;;;;;;5042266;28;20448;-64
2022/03/13 05:03:15;;;;;;;103.63;37.33;;;;;;;;;;5042018;28;20530;-65
2022/03/13 05:05:42;;;;;;;101.17;37.87;;;;;;;;;;5040930;28;20454;-64
2022/03/13 05:08:15;;;;;;;101.23;36.97;;;;;;;;;;5041658;28;20442;-65
2022/03/13 05:10:43;;;;;;;99.43;37.37;;;;;;;;;;5041657;28;20462;-63
2022/03/13 05:13:14;;;;;;;105.67;41.73;;;;;;;;;;5042495;28;20477;-63
2022/03/13 05:15:41;;;;;;;120.13;41.37;;;;;;;;;;5043140;28;20441;-64
2022/03/13 05:18:08;;;;;;;106.63;39.37;;;;;;;;;;5043126;28;20844;-63
2022/03/13 05:20:35;;;;;;;112.40;39.80;;;;;;;;;;5043166;28;20430;-65
2022/03/13 05:23:05;;;;;;;115.17;39.97;;;;;;;;;;5043021;28;20501;-65
2022/03/13 05:25:32;;;;;;;101.87;36.87;;;;;;;;;;5043390;28;20437;-65
2022/03/13 05:27:59;;;;;;;110.03;38.20;;;;;;;;;;5042704;28;20513;-63
2022/03/13 05:30:25;;;;;;;117.93;40.40;;;;;;;;;;5042854;28;20466;-65
2022/03/13 05:32:52;;;;;;;114.00;38.60;;;;;;;;;;5042963;28;20555;-64
2022/03/13 05:35:19;;;;;;;111.80;40.07;;;;;;;;;;5042526;28;20445;-65
2022/03/13 05:37:46;;;;;;;125.93;42.40;;;;;;;;;;5042839;28;20492;-65
2022/03/13 05:40:14;;;;;;;124.60;41.43;;;;;;;;;;5043081;28;21362;-65
2022/03/13 05:42:44;;;;;;;128.73;43.00;;;;;;;;;;5042156;28;20449;-65
2022/03/13 05:45:19;;;;;;;133.10;43.63;;;;;;;;;;5043130;28;20870;-65
2022/03/13 05:47:46;;;;;;;129.70;44.33;;;;;;;;;;5041922;28;20445;-65
2022/03/13 05:50:13;;;;;;;119.97;44.30;;;;;;;;;;5042757;28;20453;-65
2022/03/13 05:52:41;;;;;;;132.33;46.60;;;;;;;;;;5041261;28;20474;-65
2022/03/13 05:55:08;;;;;;;141.90;47.27;;;;;;;;;;5042781;28;20433;-64
2022/03/13 05:57:35;;;;;;;137.83;47.43;;;;;;;;;;5043066;28;20442;-64
2022/03/13 06:00:05;;;;;;;119.67;45.47;;;;;;;;;;5043029;28;20446;-63
2022/03/13 06:02:40;;;;;;;120.30;45.00;;;;;;;;;;5042873;28;20434;-64
2022/03/13 06:05:08;;;;;;;116.13;44.33;;;;;;;;;;5041439;28;20524;-64
2022/03/13 06:07:35;;;;;;;111.63;44.23;;;;;;;;;;5046554;28;20428;-63
2022/03/13 06:10:03;;;;;;;116.13;43.60;;;;;;;;;;5046330;28;20456;-63
2022/03/13 06:12:32;;;;;;;117.03;45.37;;;;;;;;;;5046288;28;20827;-64
2022/03/13 06:14:59;;;;;;;107.93;44.50;;;;;;;;;;5047229;28;20436;-63
2022/03/13 06:17:26;;;;;;;110.87;45.40;;;;;;;;;;5046542;28;20452;-63
2022/03/13 06:19:55;;;;;;;115.67;45.50;;;;;;;;;;5046166;28;20444;-64
2022/03/13 06:22:24;;;;;;;108.40;45.47;;;;;;;;;;5046357;28;20437;-64
2022/03/13 06:24:51;;;;;;;119.77;47.30;;;;;;;;;;5046485;28;20472;-64
2022/03/13 06:27:19;;;;;;;117.63;47.17;;;;;;;;;;5046155;28;20859;-64
2022/03/13 06:29:46;;;;;;;110.20;46.20;;;;;;;;;;5045614;28;20524;-64
2022/03/13 06:32:12;;;;;;;109.90;44.70;;;;;;;;;;5046884;28;20429;-64
2022/03/13 06:34:39;;;;;;;117.60;47.27;;;;;;;;;;5045946;28;20560;-63
2022/03/13 06:37:07;;;;;;;112.30;44.37;;;;;;;;;;5046473;28;20791;-64
2022/03/13 06:39:34;;;;;;;102.03;43.63;;;;;;;;;;5045209;28;20465;-64
2022/03/13 06:42:00;;;;;;;99.33;44.17;;;;;;;;;;5046576;28;20584;-64
2022/03/13 06:44:27;;;;;;;99.50;45.07;;;;;;;;;;5046198;28;20438;-64
2022/03/13 06:46:54;;;;;;;103.87;45.03;;;;;;;;;;5046225;28;20862;-63
2022/03/13 06:49:20;;;;;;;109.97;47.90;;;;;;;;;;5045324;28;20452;-64
2022/03/13 06:51:47;;;;;;;118.53;47.90;;;;;;;;;;5043616;28;20802;-63
2022/03/13 06:54:14;;;;;;;105.83;46.70;;;;;;;;;;5045796;28;20480;-63
2022/03/13 06:56:41;;;;;;;114.03;49.43;;;;;;;;;;5046719;28;20479;-64
2022/03/13 06:59:10;;;;;;;124.03;50.77;;;;;;;;;;5027672;28;20449;-64
2022/03/13 07:01:37;;;;;;;110.60;48.77;;;;;;;;;;5046044;28;20452;-64
2022/03/13 07:04:04;;;;;;;113.87;48.87;;;;;;;;;;5040865;28;20540;-64
2022/03/13 07:06:33;;;;;;;108.33;46.87;;;;;;;;;;5040785;28;20481;-65
2022/03/13 07:09:02;;;;;;;105.57;47.87;;;;;;;;;;5061515;28;20465;-64
2022/03/13 07:11:32;;;;;;;112.53;48.00;;;;;;;;;;5030574;28;20797;-64
2022/03/13 07:14:05;;;;;;;110.37;49.80;;;;;;;;;;5056638;28;20479;-64
2022/03/13 07:16:32;;;;;;;104.90;50.37;;;;;;;;;;5031019;28;20445;-62
2022/03/13 07:18:59;;;;;;;92.83;48.97;;;;;;;;;;5047983;28;20449;-62
2022/03/13 07:21:26;;;;;;;99.73;49.10;;;;;;;;;;5049667;28;20186;-62
2022/03/13 07:23:52;;;;;;;101.87;51.13;;;;;;;;;;5050384;28;20195;-62
2022/03/13 07:26:19;;;;;;;100.80;49.87;;;;;;;;;;5044975;28;20191;-62
2022/03/13 07:28:49;;;;;;;96.37;51.40;;;;;;;;;;5033844;28;20536;-63
2022/03/13 07:31:15;;;;;;;92.03;49.43;;;;;;;;;;5041664;28;20195;-62
2022/03/13 07:33:42;;;;;;;91.23;48.33;;;;;;;;;;5052399;28;20573;-62
2022/03/13 07:36:09;;;;;;;80.73;44.17;;;;;;;;;;5054805;28;20187;-63
2022/03/13 07:38:36;;;;;;;77.77;42.33;;;;;;;;;;5055747;28;20206;-63
2022/03/13 07:41:03;;;;;;;72.60;39.53;;;;;;;;;;5049793;28;20302;-62
2022/03/13 07:43:33;;;;;;;59.90;35.33;;;;;;;;;;5049860;28;20574;-63
2022/03/13 07:46:00;;;;;;;54.80;31.63;;;;;;;;;;5048857;28;20983;-63
2022/03/13 07:48:27;;;;;;;52.77;32.37;;;;;;;;;;5050019;28;20265;-63
2022/03/13 07:50:54;;;;;;;52.57;32.60;;;;;;;;;;5046390;28;20246;-63
2022/03/13 07:53:26;;;;;;;58.53;35.60;;;;;;;;;;5047120;28;20238;-64
2022/03/13 07:55:54;;;;;;;66.50;38.70;;;;;;;;;;5049152;28;20199;-64
2022/03/13 07:58:22;;;;;;;69.83;42.17;;;;;;;;;;5060258;28;20186;-63
2022/03/13 08:00:50;;;;;;;67.70;39.50;;;;;;;;;;5035102;28;20195;-64
2022/03/13 08:03:34;;;;;;;65.93;37.03;;;;;;;;;;5033092;28;20302;-63
2022/03/13 08:06:02;;;;;;;62.13;36.87;;;;;;;;;;5029805;28;20882;-62
2022/03/13 08:08:29;;;;;;;64.17;36.80;;;;;;;;;;5044308;28;21083;-63
2022/03/13 08:10:55;;;;;;;62.77;34.33;;;;;;;;;;5048075;28;20187;-63
2022/03/13 08:13:22;;;;;;;59.70;34.27;;;;;;;;;;5029502;28;20207;-63
2022/03/13 08:15:49;;;;;;;57.53;33.07;;;;;;;;;;5029278;28;20226;-63
2022/03/13 08:18:16;;;;;;;54.93;32.30;;;;;;;;;;5029912;28;20192;-63
2022/03/13 08:20:43;;;;;;;50.67;28.93;;;;;;;;;;5028925;28;20195;-63
2022/03/13 08:23:09;;;;;;;44.10;27.00;;;;;;;;;;5046211;28;20187;-64
2022/03/13 08:25:36;;;;;;;40.73;24.37;;;;;;;;;;5035774;28;20184;-64
2022/03/13 08:28:03;;;;;;;50.83;27.43;;;;;;;;;;5028368;28;20610;-63
2022/03/13 08:30:30;;;;;;;41.70;24.40;;;;;;;;;;5029653;28;20673;-64
2022/03/13 08:32:56;;;;;;;47.33;26.73;;;;;;;;;;5031654;28;20215;-64
2022/03/13 08:35:24;;;;;;;43.83;24.40;;;;;;;;;;5041624;28;20194;-64
2022/03/13 08:37:55;;;;;;;35.73;19.87;;;;;;;;;;5038657;28;20203;-64
2022/03/13 08:40:25;;;;;;;32.90;19.07;;;;;;;;;;5028271;28;20223;-63
2022/03/13 08:42:52;;;;;;;28.27;16.50;;;;;;;;;;5028750;28;21065;-63
2022/03/13 08:45:19;;;;;;;23.23;14.10;;;;;;;;;;5029208;28;20199;-64
2022/03/13 08:47:47;;;;;;;18.63;10.60;;;;;;;;;;5046084;28;20191;-63
2022/03/13 08:50:16;;;;;;;21.53;12.17;;;;;;;;;;5054550;28;20188;-63
2022/03/13 08:52:43;;;;;;;16.67;10.80;;;;;;;;;;5040512;28;20191;-64
2022/03/13 08:55:15;;;;;;;17.17;10.50;;;;;;;;;;5048610;28;20197;-63
2022/03/13 08:57:42;;;;;;;14.60;8.83;;;;;;;;;;5048345;28;20187;-63
2022/03/13 09:00:10;;;;;;;13.40;8.43;;;;;;;;;;5037817;28;20195;-62
2022/03/13 09:02:38;;;;;;;14.43;8.33;;;;;;;;;;5027721;28;20183;-63
2022/03/13 09:05:05;;;;;;;15.30;8.87;;;;;;;;;;5026880;28;20184;-63
2022/03/13 09:07:32;;;;;;;13.80;7.90;;;;;;;;;;5041516;28;20261;-63
2022/03/13 09:09:58;;;;;;;10.60;6.63;;;;;;;;;;5029554;28;20249;-63
2022/03/13 09:12:25;;;;;;;11.50;7.60;;;;;;;;;;5029739;28;20187;-63
2022/03/13 09:14:52;;;;;;;12.53;7.03;;;;;;;;;;5029130;28;20303;-64
2022/03/13 09:17:18;;;;;;;12.27;7.57;;;;;;;;;;5028576;28;20214;-63
2022/03/13 09:19:45;;;;;;;10.27;6.73;;;;;;;;;;5028698;28;20245;-64
2022/03/13 09:22:14;;;;;;;12.57;7.87;;;;;;;;;;5028733;28;20205;-65
2022/03/13 09:24:41;;;;;;;12.50;8.70;;;;;;;;;;5028292;28;20190;-64
2022/03/13 09:27:07;;;;;;;13.27;7.87;;;;;;;;;;5044131;28;20274;-64
2022/03/13 09:29:34;;;;;;;11.00;6.87;;;;;;;;;;5027692;28;20196;-64
2022/03/13 09:32:01;;;;;;;9.87;6.20;;;;;;;;;;5028068;28;20191;-65
2022/03/13 09:34:28;;;;;;;11.07;7.47;;;;;;;;;;5028524;28;20238;-65
2022/03/13 09:36:55;;;;;;;13.47;7.10;;;;;;;;;;5028742;28;20191;-64
2022/03/13 09:39:22;;;;;;;10.40;6.50;;;;;;;;;;5028700;28;20701;-64
2022/03/13 09:41:49;;;;;;;10.70;6.40;;;;;;;;;;5032404;28;20277;-64
2022/03/13 09:44:16;;;;;;;9.87;5.80;;;;;;;;;;5032274;28;20639;-64
2022/03/13 09:46:43;;;;;;;10.27;5.93;;;;;;;;;;5031867;28;20175;-64
2022/03/13 09:49:10;;;;;;;10.40;5.73;;;;;;;;;;5032172;28;20191;-64
2022/03/13 09:51:36;;;;;;;10.23;5.70;;;;;;;;;;5032231;28;20184;-64
2022/03/13 09:54:04;;;;;;;9.43;5.30;;;;;;;;;;5032016;28;20297;-65
2022/03/13 09:56:34;;;;;;;8.37;5.43;;;;;;;;;;5031697;28;20282;-64
2022/03/13 09:59:01;;;;;;;10.07;6.37;;;;;;;;;;5031888;28;20215;-64
2022/03/13 10:01:28;;;;;;;9.40;5.83;;;;;;;;;;5031763;28;20659;-64
2022/03/13 10:03:55;;;;;;;11.17;5.83;;;;;;;;;;5032103;28;20199;-65
2022/03/13 10:06:22;;;;;;;9.40;5.90;;;;;;;;;;5031821;28;20273;-65
2022/03/13 10:08:51;;;;;;;8.97;5.67;;;;;;;;;;5050013;28;20195;-65
2022/03/13 10:11:33;;;;;;;9.83;6.10;;;;;;;;;;5051616;28;20187;-65
2022/03/13 10:14:06;;;;;;;10.67;6.70;;;;;;;;;;5050519;28;20226;-65
2022/03/13 10:16:35;;;;;;;10.93;6.63;;;;;;;;;;5051619;28;20202;-65
2022/03/13 10:19:18;;;;;;;11.63;6.60;;;;;;;;;;5051323;28;20256;-64
2022/03/13 10:22:04;;;;;;;9.60;6.60;;;;;;;;;;5051358;28;20191;-65
2022/03/13 10:24:38;;;;;;;11.07;6.73;;;;;;;;;;5051854;28;20195;-65
2022/03/13 10:27:08;;;;;;;12.57;7.00;;;;;;;;;;5050726;28;20187;-65
2022/03/13 10:29:35;;;;;;;10.50;6.47;;;;;;;;;;5051427;28;20195;-65
2022/03/13 10:32:02;;;;;;;10.87;6.50;;;;;;;;;;5050924;28;20183;-65
2022/03/13 10:34:34;;;;;;;11.90;7.00;;;;;;;;;;5050200;28;20222;-65
2022/03/13 10:37:01;;;;;;;8.20;6.17;;;;;;;;;;5051105;28;20628;-65
2022/03/13 10:39:28;;;;;;;9.97;5.83;;;;;;;;;;5051669;28;20191;-65
2022/03/13 10:42:02;;;;;;;9.63;6.40;;;;;;;;;;5050958;28;20297;-65
2022/03/13 10:44:31;;;;;;;7.47;5.17;;;;;;;;;;5051114;28;20669;-65
2022/03/13 10:46:58;;;;;;;10.73;6.27;;;;;;;;;;5035824;28;20187;-65
2022/03/13 10:49:32;;;;;;;7.53;5.00;;;;;;;;;;5031075;28;20202;-65
2022/03/13 10:52:01;;;;;;;9.77;5.97;;;;;;;;;;5028923;28;20200;-65
2022/03/13 10:54:34;;;;;;;8.03;5.67;;;;;;;;;;5038016;28;20236;-65
2022/03/13 10:57:09;;;;;;;8.80;4.90;;;;;;;;;;5030955;28;20195;-65
2022/03/13 10:59:36;;;;;;;7.53;5.40;;;;;;;;;;5030962;28;20191;-64
2022/03/13 11:02:30;;;;;;;7.80;5.57;;;;;;;;;;5030260;28;20229;-64
2022/03/13 11:04:57;;;;;;;10.90;7.17;;;;;;;;;;5030230;28;20274;-64
2022/03/13 11:07:26;;;;;;;11.27;6.53;;;;;;;;;;5033782;28;20294;-65
2022/03/13 11:09:54;;;;;;;9.03;5.90;;;;;;;;;;5031598;28;20188;-65
2022/03/13 11:12:21;;;;;;;9.97;5.93;;;;;;;;;;5029455;28;20274;-65
2022/03/13 11:14:53;;;;;;;10.70;6.23;;;;;;;;;;5030680;28;20221;-64
2022/03/13 11:17:20;;;;;;;11.60;6.40;;;;;;;;;;5052084;28;20210;-65
2022/03/13 11:19:49;;;;;;;10.53;6.50;;;;;;;;;;5049243;28;20201;-65
2022/03/13 11:22:18;;;;;;;9.90;6.27;;;;;;;;;;5041209;28;20557;-65
2022/03/13 11:24:45;;;;;;;9.87;6.23;;;;;;;;;;5037188;28;20192;-64
2022/03/13 11:27:13;;;;;;;11.07;6.87;;;;;;;;;;5036315;28;20183;-64
2022/03/13 11:29:43;;;;;;;10.87;6.30;;;;;;;;;;5032863;28;21050;-63
2022/03/13 11:32:29;;;;;;;10.73;6.87;;;;;;;;;;5039604;28;20197;-62
2022/03/13 11:35:08;;;;;;;9.33;5.90;;;;;;;;;;5042756;28;20201;-63
2022/03/13 11:37:38;;;;;;;8.87;6.07;;;;;;;;;;5044188;28;20220;-62
2022/03/13 11:40:07;;;;;;;10.47;7.10;;;;;;;;;;5042938;28;20873;-62
2022/03/13 11:42:54;;;;;;;11.80;7.67;;;;;;;;;;5043042;28;20195;-62
2022/03/13 11:45:36;;;;;;;10.77;6.40;;;;;;;;;;5043151;28;20864;-63
2022/03/13 11:48:19;;;;;;;11.20;6.60;;;;;;;;;;5044756;28;20253;-63
2022/03/13 11:50:47;;;;;;;13.10;6.87;;;;;;;;;;5043804;28;20816;-64
2022/03/13 11:53:17;;;;;;;12.00;6.70;;;;;;;;;;5044450;28;20198;-62
2022/03/13 11:56:05;;;;;;;10.60;6.77;;;;;;;;;;5041985;28;20197;-62
2022/03/13 11:58:53;;;;;;;10.23;6.73;;;;;;;;;;5043331;28;20186;-63
2022/03/13 12:01:20;;;;;;;9.33;5.73;;;;;;;;;;5048668;28;20230;-64
2022/03/13 12:04:07;;;;;;;8.50;5.70;;;;;;;;;;5042486;28;20681;-63
2022/03/13 12:06:38;;;;;;;8.97;5.60;;;;;;;;;;5041457;28;20202;-62
2022/03/13 12:09:06;;;;;;;9.50;5.07;;;;;;;;;;5040695;28;20257;-63
2022/03/13 12:11:43;;;;;;;11.63;6.10;;;;;;;;;;5042093;28;20195;-62
2022/03/13 12:14:11;;;;;;;7.77;5.83;;;;;;;;;;5042751;28;20199;-62
2022/03/13 12:16:40;;;;;;;9.03;4.87;;;;;;;;;;5041838;28;21109;-61
2022/03/13 12:19:07;;;;;;;8.40;5.30;;;;;;;;;;5042210;28;20195;-62
2022/03/13 12:21:34;;;;;;;11.60;5.60;;;;;;;;;;5042976;28;20202;-62
2022/03/13 12:24:14;;;;;;;8.07;5.60;;;;;;;;;;5045903;28;20191;-64
2022/03/13 12:26:41;;;;;;;7.87;5.30;;;;;;;;;;5042474;28;20191;-65
2022/03/13 12:29:08;;;;;;;8.77;5.60;;;;;;;;;;5044757;28;20266;-65
2022/03/13 12:31:38;;;;;;;9.87;6.60;;;;;;;;;;5042478;28;20202;-64
2022/03/13 12:34:05;;;;;;;12.30;6.70;;;;;;;;;;5042835;28;20190;-65
2022/03/13 12:36:36;;;;;;;12.20;8.20;;;;;;;;;;5043492;28;20190;-64
2022/03/13 12:39:06;;;;;;;12.00;8.03;;;;;;;;;;5042081;28;20193;-62
2022/03/13 12:41:33;;;;;;;11.30;8.03;;;;;;;;;;5042109;28;20245;-62
2022/03/13 12:44:04;;;;;;;13.13;8.17;;;;;;;;;;5040837;28;20201;-62
2022/03/13 12:46:32;;;;;;;11.83;8.27;;;;;;;;;;5043092;28;20210;-63
2022/03/13 12:49:03;;;;;;;12.60;8.10;;;;;;;;;;5044322;28;20189;-63
2022/03/13 12:51:38;;;;;;;14.33;8.03;;;;;;;;;;5042184;28;20209;-62
2022/03/13 12:54:07;;;;;;;10.90;8.10;;;;;;;;;;5041221;28;20305;-64
2022/03/13 12:56:54;;;;;;;13.57;8.63;;;;;;;;;;5042937;28;20218;-64
2022/03/13 12:59:30;;;;;;;11.20;8.20;;;;;;;;;;5042365;28;20179;-64
2022/03/13 13:02:06;;;;;;;24.90;15.67;;;;;;;;;;5040475;28;20586;-64
2022/03/13 13:04:33;;;;;;;11.70;8.23;;;;;;;;;;5041998;28;20194;-65
2022/03/13 13:07:00;;;;;;;30.23;19.07;;;;;;;;;;5041823;28;20302;-65
2022/03/13 13:09:28;;;;;;;24.13;16.67;;;;;;;;;;5042720;28;20270;-66
2022/03/13 13:11:55;;;;;;;27.63;17.77;;;;;;;;;;5039318;28;20198;-66
2022/03/13 13:14:25;;;;;;;26.93;18.13;;;;;;;;;;5042101;28;20219;-66
2022/03/13 13:16:53;;;;;;;26.40;18.53;;;;;;;;;;5040597;28;20324;-66
2022/03/13 13:19:20;;;;;;;25.73;18.17;;;;;;;;;;5041489;28;20901;-66
2022/03/13 13:21:57;;;;;;;28.03;19.40;;;;;;;;;;5041363;28;20301;-66
2022/03/13 13:24:36;;;;;;;28.60;19.00;;;;;;;;;;5041585;28;20703;-66
2022/03/13 13:27:04;;;;;;;28.73;19.87;;;;;;;;;;5040964;28;20192;-67
2022/03/13 13:29:31;;;;;;;25.60;18.83;;;;;;;;;;5042719;28;20229;-67
2022/03/13 13:32:17;;;;;;;28.77;19.57;;;;;;;;;;5041940;28;20202;-67
2022/03/13 13:35:02;;;;;;;30.20;20.20;;;;;;;;;;5040197;28;20581;-67
2022/03/13 13:37:29;;;;;;;27.60;20.27;;;;;;;;;;5041143;28;20194;-67
2022/03/13 13:40:11;;;;;;;27.23;19.33;;;;;;;;;;5042663;28;20230;-67
2022/03/13 13:42:39;;;;;;;28.90;20.03;;;;;;;;;;5042888;28;20201;-64
2022/03/13 13:45:22;;;;;;;31.30;19.77;;;;;;;;;;5043476;28;20546;-67
2022/03/13 13:47:52;;;;;;;29.97;20.10;;;;;;;;;;5041391;28;20197;-65
2022/03/13 13:50:21;;;;;;;32.30;21.33;;;;;;;;;;5042552;28;20195;-66
2022/03/13 13:52:59;;;;;;;27.63;18.97;;;;;;;;;;5039710;28;20287;-66
2022/03/13 13:55:26;;;;;;;29.50;20.23;;;;;;;;;;5041650;28;20202;-66
2022/03/13 13:58:12;;;;;;;31.67;19.47;;;;;;;;;;5040571;28;20294;-66
2022/03/13 14:00:39;;;;;;;26.93;18.57;;;;;;;;;;5041986;28;20964;-66
2022/03/13 14:03:06;;;;;;;28.60;18.20;;;;;;;;;;5041916;28;20186;-67
2022/03/13 14:05:33;;;;;;;30.70;19.33;;;;;;;;;;5022268;28;21437;-66
2022/03/13 14:08:19;;;;;;;25.97;18.40;;;;;;;;;;5039880;28;20187;-67
2022/03/13 14:10:46;;;;;;;26.70;17.47;;;;;;;;;;5040804;28;20240;-67
2022/03/13 14:13:14;;;;;;;26.43;16.83;;;;;;;;;;5040017;28;20295;-66
2022/03/13 14:15:41;;;;;;;21.73;15.90;;;;;;;;;;5041564;28;21003;-65
2022/03/13 14:18:08;;;;;;;23.67;15.60;;;;;;;;;;5041288;28;20199;-65
2022/03/13 14:20:35;;;;;;;22.83;15.60;;;;;;;;;;5041468;28;20198;-64
2022/03/13 14:23:01;;;;;;;24.97;16.13;;;;;;;;;;5039973;28;20188;-64
2022/03/13 14:25:29;;;;;;;23.40;15.17;;;;;;;;;;5041766;28;20277;-65
2022/03/13 14:27:57;;;;;;;24.23;15.70;;;;;;;;;;5043162;28;20275;-67
2022/03/13 14:30:24;;;;;;;21.73;15.73;;;;;;;;;;5045636;28;20278;-66
2022/03/13 14:32:50;;;;;;;20.73;14.77;;;;;;;;;;5044169;28;20219;-64
2022/03/13 14:35:18;;;;;;;20.90;13.70;;;;;;;;;;5045607;28;20211;-65
2022/03/13 14:37:45;;;;;;;19.37;13.33;;;;;;;;;;5045878;28;20787;-65
2022/03/13 14:40:32;;;;;;;17.27;11.33;;;;;;;;;;5045773;28;20224;-64
2022/03/13 14:42:58;;;;;;;18.57;12.00;;;;;;;;;;5044445;28;20294;-64
2022/03/13 14:45:25;;;;;;;18.00;11.10;;;;;;;;;;5045769;28;20201;-65
2022/03/13 14:47:52;;;;;;;15.10;10.20;;;;;;;;;;5043500;28;20185;-64
2022/03/13 14:50:39;;;;;;;16.20;10.03;;;;;;;;;;5040016;28;20198;-65
2022/03/13 14:53:06;;;;;;;15.03;10.80;;;;;;;;;;5044208;28;20183;-64
2022/03/13 14:55:34;;;;;;;15.90;10.43;;;;;;;;;;5045415;28;20225;-65
2022/03/13 14:58:00;;;;;;;15.53;10.27;;;;;;;;;;5044477;28;20314;-67